Terminal Aerodrome Forecast
Issued by NWS North Platte, NE

Home | Current Version | Previous Version | Text Only | Print | Product List | Glossary On
Versions: 1 2 3 4 5 6 7 8 9 10 11 12 13 14 15 16 17 18 19 20 21 22 23 24 25 26 27 28 29 30 31 32 33 34 35
000
FTUS43 KLBF 182000 AAA
TAFLBF
TAF AMD
KLBF 182038Z 1821/1918 25007KT P6SM OVC009
      TEMPO 1821/1823 5SM BR OVC007
     FM190000 25004KT 5SM BR SCT010
     FM190600 VRB03KT 3SM BR SCT150
     FM191600 27005KT 5SM BR SCT150=

USA.gov is the U.S. government's official web portal to all federal, state and local government web resources and services.